Arklow Spray — C6VK8 — position and weather

sailwx.info

Track history (hours):
 
Tides and Currents Weather Stations Pressure Air Temp Water Temp Dewpoint Dewpoint Depression Visibility Wind Speed Wind Dir Waves Ship Positions

Arklow Spray

Last reported at 2017-Nov-24 16:40 UTC. Time now 2017-Nov-25 09:52 UTC.
Position N 49°58' W 004°44'.

Length 90 m; draft 4.7 m.

MMSI: 309914000.

Date/timePositionNaut miles runAvg speedWind from/ knotsBaromVisibWave heightAir tempDewpointWater temp
2017-Nov-24 16:40N 49°58' W 004°44'1010.4
2017-Nov-24 15:45N 49°60' W 004°30'210.5
2017-Nov-24 15:30N 50°00' W 004°26'510.6
2017-Nov-24 15:00N 50°01' W 004°18'2310.5
2017-Nov-24 12:47N 50°05' W 003°42'310.0
2017-Nov-24 12:30N 50°06' W 003°38'5 9.7
2017-Nov-24 12:00N 50°07' W 003°30'5 9.6
2017-Nov-24 11:30N 50°08' W 003°23'5 9.3
2017-Nov-24 11:00N 50°09' W 003°16'5 9.2
2017-Nov-24 10:31N 50°10' W 003°09'4 8.9
2017-Nov-24 10:01N 50°10' W 003°02'4 8.9
2017-Nov-24 09:31N 50°11' W 002°55'5 9.0
2017-Nov-24 09:00N 50°12' W 002°48'10310.2
2017-Nov-23 22:51N 50°31' W 000°09'2 7.1
2017-Nov-23 22:30N 50°32' W 000°05'4 7.3
2017-Nov-23 22:00N 50°32' E 000°00'4 7.7
2017-Nov-23 21:31N 50°33' E 000°06'4 8.3
2017-Nov-23 20:58N 50°34' E 000°13'4 8.6
2017-Nov-23 20:30N 50°36' E 000°19'5 8.9
2017-Nov-23 19:59N 50°37' E 000°26'4 9.0
2017-Nov-23 19:30N 50°39' E 000°32'4 9.0
2017-Nov-23 19:01N 50°41' E 000°38'4 8.9
2017-Nov-23 18:31N 50°43' E 000°44'4 8.7
2017-Nov-23 18:00N 50°46' E 000°50'4 8.4
2017-Nov-23 17:30N 50°48' E 000°55'25 6.8
2017-Nov-23 13:49N 51°04' E 001°26'2 6.0
2017-Nov-23 13:30N 51°05' E 001°29'3 5.8
2017-Nov-23 13:01N 51°07' E 001°32'3 5.9
2017-Nov-23 12:30N 51°09' E 001°36'3 6.6
2017-Nov-23 12:01N 51°11' E 001°40'4 7.9
2017-Nov-23 11:30N 51°13' E 001°45'4 8.4
2017-Nov-23 11:01N 51°17' E 001°49'5 9.6
2017-Nov-23 10:30N 51°20' E 001°54'5 9.7
2017-Nov-23 10:01N 51°24' E 001°59'4 7.6
2017-Nov-23 09:30N 51°24' E 002°05'4 8.5
2017-Nov-23 09:00N 51°22' E 002°11'4 8.0
2017-Nov-23 08:30N 51°21' E 002°17'4 7.6
2017-Nov-23 07:59N 51°22' E 002°23'4 7.8
2017-Nov-23 07:29N 51°23' E 002°29'4 8.2
2017-Nov-23 07:00N 51°23' E 002°36'4 8.5
2017-Nov-23 06:30N 51°22' E 002°43'4 7.3
2017-Nov-23 05:58N 51°22' E 002°49'4 8.8
2017-Nov-23 05:30N 51°22' E 002°55'4 8.8
2017-Nov-23 05:01N 51°22' E 003°02'4 8.5
2017-Nov-23 04:30N 51°23' E 003°09'4 8.5
2017-Nov-23 04:00N 51°24' E 003°16'4 8.8
2017-Nov-23 03:31N 51°24' E 003°23'4 8.3
2017-Nov-23 03:01N 51°25' E 003°29'4 7.5
2017-Nov-23 02:31N 51°25' E 003°35'3 6.2
2017-Nov-23 02:01N 51°25' E 003°40'4 8.1
2017-Nov-23 01:30N 51°22' E 003°45'3 5.6
2017-Nov-23 00:56N 51°20' E 003°49'0 0.0
2017-Nov-23 00:26N 51°20' E 003°49'0 0.5
2017-Nov-23 00:00N 51°20' E 003°49'3 5.5
2017-Nov-22 23:30N 51°17' E 003°50'4 8.0
2017-Nov-22 23:00N 51°13' E 003°48'4 9.0
2017-Nov-22 22:31N 51°09' E 003°47'1 1.6
2017-Nov-22 21:58N 51°08' E 003°47'0 0.0
2017-Nov-22 21:28N 51°08' E 003°47'0 0.0
2017-Nov-22 20:55N 51°08' E 003°47'0 0.0
2017-Nov-22 20:28N 51°08' E 003°47'0 0.0
2017-Nov-22 19:58N 51°08' E 003°47'0 0.0
2017-Nov-22 19:28N 51°08' E 003°47'  
2017-Nov-16 16:17N 53°42' W 000°40'5 7.7
2017-Nov-16 15:40N 53°41' W 000°33'1 7.9
2017-Nov-16 15:30N 53°41' W 000°30'510.1
2017-Nov-16 15:00N 53°43' W 000°22'510.0
2017-Nov-16 14:30N 53°42' W 000°14'611.7
2017-Nov-16 14:01N 53°38' W 000°07'612.0
2017-Nov-16 13:30N 53°35' E 000°02'54 7.8
2017-Nov-16 06:36N 53°01' E 001°11'1 8.7
2017-Nov-16 06:30N 53°00' E 001°12'4 8.4
2017-Nov-16 06:00N 52°59' E 001°19'4 8.0
2017-Nov-16 05:30N 52°57' E 001°25'4 8.1
2017-Nov-16 05:00N 52°56' E 001°31'4 8.4
2017-Nov-16 04:30N 52°54' E 001°37'5 9.2
2017-Nov-16 04:00N 52°51' E 001°44'510.0
2017-Nov-16 03:30N 52°49' E 001°50'5 9.8
2017-Nov-16 03:00N 52°45' E 001°56'611.8
2017-Nov-16 02:30N 52°39' E 001°55'612.5
2017-Nov-16 02:00N 52°33' E 001°54'712.8
2017-Nov-16 01:28N 52°26' E 001°54'712.6
2017-Nov-16 00:57N 52°20' E 001°53'812.7
2017-Nov-16 00:19N 52°12' E 001°51'412.6
2017-Nov-16 00:00N 52°08' E 001°50'612.7
2017-Nov-15 23:31N 52°02' E 001°49'612.0
2017-Nov-15 23:00N 51°56' E 001°48'611.2
2017-Nov-15 22:30N 51°50' E 001°47'5 9.9
2017-Nov-15 22:00N 51°50' E 001°39'510.2
2017-Nov-15 21:30N 51°48' E 001°31'5 9.7
2017-Nov-15 21:00N 51°46' E 001°24'4 8.7
2017-Nov-15 20:30N 51°44' E 001°18'5 9.1
2017-Nov-15 20:00N 51°42' E 001°12'4 8.7
2017-Nov-15 19:30N 51°40' E 001°05'4 8.6
2017-Nov-15 19:00N 51°38' E 000°59'4 8.5
2017-Nov-15 18:30N 51°37' E 000°52'3 5.7
2017-Nov-15 17:59N 51°37' E 000°48'0 0.1
2017-Nov-15 17:29N 51°37' E 000°48'0 0.0
2017-Nov-15 16:59N 51°37' E 000°48'0 0.0
2017-Nov-15 16:26N 51°37' E 000°48'0 0.0
2017-Nov-15 15:50N 51°37' E 000°48'0 0.0
2017-Nov-15 15:26N 51°37' E 000°48'0 0.0
2017-Nov-15 14:56N 51°37' E 000°48'0 0.0
2017-Nov-15 14:29N 51°37' E 000°48'0 0.0
2017-Nov-15 13:59N 51°37' E 000°48'0 0.0
2017-Nov-15 13:29N 51°37' E 000°48'0 0.0
2017-Nov-15 12:59N 51°37' E 000°48'0 0.0
2017-Nov-15 12:29N 51°37' E 000°48'0 0.0
2017-Nov-15 11:59N 51°37' E 000°48'0 0.0
2017-Nov-15 11:29N 51°37' E 000°48'0 0.0
2017-Nov-15 10:59N 51°37' E 000°48'0 0.0
2017-Nov-15 10:30N 51°37' E 000°48'0 0.0
2017-Nov-15 09:59N 51°37' E 000°48'0 0.0
2017-Nov-15 09:26N 51°37' E 000°48'0 0.0
2017-Nov-15 08:59N 51°37' E 000°48'0 0.0
2017-Nov-15 08:29N 51°37' E 000°48'0 0.0
2017-Nov-15 07:59N 51°37' E 000°48'0 0.0
2017-Nov-15 07:29N 51°37' E 000°48'0 0.3
2017-Nov-15 07:00N 51°37' E 000°48'2 3.6
2017-Nov-15 06:31N 51°37' E 000°51'3 5.1
2017-Nov-15 06:00N 51°37' E 000°55'4 8.5
2017-Nov-15 05:30N 51°39' E 001°01'4 8.9
2017-Nov-15 05:01N 51°41' E 001°07'5 9.7
2017-Nov-15 04:30N 51°43' E 001°15'5 9.3
2017-Nov-15 04:00N 51°45' E 001°21'4 9.0
2017-Nov-15 03:30N 51°47' E 001°28'4 8.5
2017-Nov-15 03:00N 51°49' E 001°33'3 5.2
2017-Nov-15 02:30N 51°50' E 001°37'2 4.9
2017-Nov-15 02:00N 51°51' E 001°41'2 4.8
2017-Nov-15 01:30N 51°52' E 001°45'2 4.5
2017-Nov-15 01:00N 51°51' E 001°48'3 6.8
2017-Nov-15 00:30N 51°47' E 001°49'3 6.9
2017-Nov-15 00:00N 51°44' E 001°49'3 6.9
2017-Nov-14 23:30N 51°41' E 001°49'4 7.1
2017-Nov-14 23:00N 51°37' E 001°48'4 7.0
2017-Nov-14 22:31N 51°34' E 001°47'4 7.1
2017-Nov-14 22:00N 51°30' E 001°45'5 9.2
2017-Nov-14 21:30N 51°26' E 001°44'5 9.9
2017-Nov-14 21:00N 51°21' E 001°42'5 9.8
2017-Nov-14 20:30N 51°16' E 001°39'510.0
2017-Nov-14 20:00N 51°12' E 001°36'4 8.7
2017-Nov-14 19:30N 51°07' E 001°38'4 8.0
2017-Nov-14 19:00N 51°04' E 001°36'5 9.9
2017-Nov-14 18:30N 50°60' E 001°31'  
Track history (hours):
 
Tides and Currents Weather Stations Pressure Air Temp Water Temp Dewpoint Dewpoint Depression Visibility Wind Speed Wind Dir Waves Ship Positions

Arklow Spray

Last reported at 2017-Nov-24 16:40 UTC. Time now 2017-Nov-25 09:52 UTC.
Position N 49°58' W 004°44'.

Length 90 m; draft 4.7 m.

MMSI: 309914000.

Date/timePositionNaut miles runAvg speedWind from/ knotsBaromVisibWave heightAir tempDewpointWater temp
2017-Nov-24 16:40N 49°58' W 004°44'1010.4
2017-Nov-24 15:45N 49°60' W 004°30'210.5
2017-Nov-24 15:30N 50°00' W 004°26'510.6
2017-Nov-24 15:00N 50°01' W 004°18'2310.5
2017-Nov-24 12:47N 50°05' W 003°42'310.0
2017-Nov-24 12:30N 50°06' W 003°38'5 9.7
2017-Nov-24 12:00N 50°07' W 003°30'5 9.6
2017-Nov-24 11:30N 50°08' W 003°23'5 9.3
2017-Nov-24 11:00N 50°09' W 003°16'5 9.2
2017-Nov-24 10:31N 50°10' W 003°09'4 8.9
2017-Nov-24 10:01N 50°10' W 003°02'4 8.9
2017-Nov-24 09:31N 50°11' W 002°55'5 9.0
2017-Nov-24 09:00N 50°12' W 002°48'10310.2
2017-Nov-23 22:51N 50°31' W 000°09'2 7.1
2017-Nov-23 22:30N 50°32' W 000°05'4 7.3
2017-Nov-23 22:00N 50°32' E 000°00'4 7.7
2017-Nov-23 21:31N 50°33' E 000°06'4 8.3
2017-Nov-23 20:58N 50°34' E 000°13'4 8.6
2017-Nov-23 20:30N 50°36' E 000°19'5 8.9
2017-Nov-23 19:59N 50°37' E 000°26'4 9.0
2017-Nov-23 19:30N 50°39' E 000°32'4 9.0
2017-Nov-23 19:01N 50°41' E 000°38'4 8.9
2017-Nov-23 18:31N 50°43' E 000°44'4 8.7
2017-Nov-23 18:00N 50°46' E 000°50'4 8.4
2017-Nov-23 17:30N 50°48' E 000°55'25 6.8
2017-Nov-23 13:49N 51°04' E 001°26'2 6.0
2017-Nov-23 13:30N 51°05' E 001°29'3 5.8
2017-Nov-23 13:01N 51°07' E 001°32'3 5.9
2017-Nov-23 12:30N 51°09' E 001°36'3 6.6
2017-Nov-23 12:01N 51°11' E 001°40'4 7.9
2017-Nov-23 11:30N 51°13' E 001°45'4 8.4
2017-Nov-23 11:01N 51°17' E 001°49'5 9.6
2017-Nov-23 10:30N 51°20' E 001°54'5 9.7
2017-Nov-23 10:01N 51°24' E 001°59'4 7.6
2017-Nov-23 09:30N 51°24' E 002°05'4 8.5
2017-Nov-23 09:00N 51°22' E 002°11'4 8.0
2017-Nov-23 08:30N 51°21' E 002°17'4 7.6
2017-Nov-23 07:59N 51°22' E 002°23'4 7.8
2017-Nov-23 07:29N 51°23' E 002°29'4 8.2
2017-Nov-23 07:00N 51°23' E 002°36'4 8.5
2017-Nov-23 06:30N 51°22' E 002°43'4 7.3
2017-Nov-23 05:58N 51°22' E 002°49'4 8.8
2017-Nov-23 05:30N 51°22' E 002°55'4 8.8
2017-Nov-23 05:01N 51°22' E 003°02'4 8.5
2017-Nov-23 04:30N 51°23' E 003°09'4 8.5
2017-Nov-23 04:00N 51°24' E 003°16'4 8.8
2017-Nov-23 03:31N 51°24' E 003°23'4 8.3
2017-Nov-23 03:01N 51°25' E 003°29'4 7.5
2017-Nov-23 02:31N 51°25' E 003°35'3 6.2
2017-Nov-23 02:01N 51°25' E 003°40'4 8.1
2017-Nov-23 01:30N 51°22' E 003°45'3 5.6
2017-Nov-23 00:56N 51°20' E 003°49'0 0.0
2017-Nov-23 00:26N 51°20' E 003°49'0 0.5
2017-Nov-23 00:00N 51°20' E 003°49'3 5.5
2017-Nov-22 23:30N 51°17' E 003°50'4 8.0
2017-Nov-22 23:00N 51°13' E 003°48'4 9.0
2017-Nov-22 22:31N 51°09' E 003°47'1 1.6
2017-Nov-22 21:58N 51°08' E 003°47'0 0.0
2017-Nov-22 21:28N 51°08' E 003°47'0 0.0
2017-Nov-22 20:55N 51°08' E 003°47'0 0.0
2017-Nov-22 20:28N 51°08' E 003°47'0 0.0
2017-Nov-22 19:58N 51°08' E 003°47'0 0.0
2017-Nov-22 19:28N 51°08' E 003°47'  
2017-Nov-16 16:17N 53°42' W 000°40'5 7.7
2017-Nov-16 15:40N 53°41' W 000°33'1 7.9
2017-Nov-16 15:30N 53°41' W 000°30'510.1
2017-Nov-16 15:00N 53°43' W 000°22'510.0
2017-Nov-16 14:30N 53°42' W 000°14'611.7
2017-Nov-16 14:01N 53°38' W 000°07'612.0
2017-Nov-16 13:30N 53°35' E 000°02'54 7.8
2017-Nov-16 06:36N 53°01' E 001°11'1 8.7
2017-Nov-16 06:30N 53°00' E 001°12'4 8.4
2017-Nov-16 06:00N 52°59' E 001°19'4 8.0
2017-Nov-16 05:30N 52°57' E 001°25'4 8.1
2017-Nov-16 05:00N 52°56' E 001°31'4 8.4
2017-Nov-16 04:30N 52°54' E 001°37'5 9.2
2017-Nov-16 04:00N 52°51' E 001°44'510.0
2017-Nov-16 03:30N 52°49' E 001°50'5 9.8
2017-Nov-16 03:00N 52°45' E 001°56'611.8
2017-Nov-16 02:30N 52°39' E 001°55'612.5
2017-Nov-16 02:00N 52°33' E 001°54'712.8
2017-Nov-16 01:28N 52°26' E 001°54'712.6
2017-Nov-16 00:57N 52°20' E 001°53'812.7
2017-Nov-16 00:19N 52°12' E 001°51'412.6
2017-Nov-16 00:00N 52°08' E 001°50'612.7
2017-Nov-15 23:31N 52°02' E 001°49'612.0
2017-Nov-15 23:00N 51°56' E 001°48'611.2
2017-Nov-15 22:30N 51°50' E 001°47'5 9.9
2017-Nov-15 22:00N 51°50' E 001°39'510.2
2017-Nov-15 21:30N 51°48' E 001°31'5 9.7
2017-Nov-15 21:00N 51°46' E 001°24'4 8.7
2017-Nov-15 20:30N 51°44' E 001°18'5 9.1
2017-Nov-15 20:00N 51°42' E 001°12'4 8.7
2017-Nov-15 19:30N 51°40' E 001°05'4 8.6
2017-Nov-15 19:00N 51°38' E 000°59'4 8.5
2017-Nov-15 18:30N 51°37' E 000°52'3 5.7
2017-Nov-15 17:59N 51°37' E 000°48'0 0.1
2017-Nov-15 17:29N 51°37' E 000°48'0 0.0
2017-Nov-15 16:59N 51°37' E 000°48'0 0.0
2017-Nov-15 16:26N 51°37' E 000°48'0 0.0
2017-Nov-15 15:50N 51°37' E 000°48'0 0.0
2017-Nov-15 15:26N 51°37' E 000°48'0 0.0
2017-Nov-15 14:56N 51°37' E 000°48'0 0.0
2017-Nov-15 14:29N 51°37' E 000°48'0 0.0
2017-Nov-15 13:59N 51°37' E 000°48'0 0.0
2017-Nov-15 13:29N 51°37' E 000°48'0 0.0
2017-Nov-15 12:59N 51°37' E 000°48'0 0.0
2017-Nov-15 12:29N 51°37' E 000°48'0 0.0
2017-Nov-15 11:59N 51°37' E 000°48'0 0.0
2017-Nov-15 11:29N 51°37' E 000°48'0 0.0
2017-Nov-15 10:59N 51°37' E 000°48'0 0.0
2017-Nov-15 10:30N 51°37' E 000°48'0 0.0
2017-Nov-15 09:59N 51°37' E 000°48'0 0.0
2017-Nov-15 09:26N 51°37' E 000°48'0 0.0
2017-Nov-15 08:59N 51°37' E 000°48'0 0.0
2017-Nov-15 08:29N 51°37' E 000°48'0 0.0
2017-Nov-15 07:59N 51°37' E 000°48'0 0.0
2017-Nov-15 07:29N 51°37' E 000°48'0 0.3
2017-Nov-15 07:00N 51°37' E 000°48'2 3.6
2017-Nov-15 06:31N 51°37' E 000°51'3 5.1
2017-Nov-15 06:00N 51°37' E 000°55'4 8.5
2017-Nov-15 05:30N 51°39' E 001°01'4 8.9
2017-Nov-15 05:01N 51°41' E 001°07'5 9.7
2017-Nov-15 04:30N 51°43' E 001°15'5 9.3
2017-Nov-15 04:00N 51°45' E 001°21'4 9.0
2017-Nov-15 03:30N 51°47' E 001°28'4 8.5
2017-Nov-15 03:00N 51°49' E 001°33'3 5.2
2017-Nov-15 02:30N 51°50' E 001°37'2 4.9
2017-Nov-15 02:00N 51°51' E 001°41'2 4.8
2017-Nov-15 01:30N 51°52' E 001°45'2 4.5
2017-Nov-15 01:00N 51°51' E 001°48'3 6.8
2017-Nov-15 00:30N 51°47' E 001°49'3 6.9
2017-Nov-15 00:00N 51°44' E 001°49'3 6.9
2017-Nov-14 23:30N 51°41' E 001°49'4 7.1
2017-Nov-14 23:00N 51°37' E 001°48'4 7.0
2017-Nov-14 22:31N 51°34' E 001°47'4 7.1
2017-Nov-14 22:00N 51°30' E 001°45'5 9.2
2017-Nov-14 21:30N 51°26' E 001°44'5 9.9
2017-Nov-14 21:00N 51°21' E 001°42'5 9.8
2017-Nov-14 20:30N 51°16' E 001°39'510.0
2017-Nov-14 20:00N 51°12' E 001°36'4 8.7
2017-Nov-14 19:30N 51°07' E 001°38'4 8.0
2017-Nov-14 19:00N 51°04' E 001°36'5 9.9
2017-Nov-14 18:30N 50°60' E 001°31'  

Dump ship's entire track history